Time;durP1;ratioP1;P1;durP2;ratioP2;P2;SDS_P1;SDS_P2;PMS_P1;PMS_P2;Temp;Humidity;BMP_temperature;BMP_pressure;BME280_temperature;BME280_humidity;BME280_pressure;Samples;Min_cycle;Max_cycle;Signal;HPM_P1;HPM_P2
2023/01/22 00:01:20;;;;;;;17.77;16.07;;;3.10;99.90;;;;;;10556290;28;20200;-79
2023/01/22 00:06:23;;;;;;;19.63;17.73;;;3.10;99.90;;;;;;10534321;28;20642;-79
2023/01/22 00:11:25;;;;;;;19.33;17.40;;;3.10;99.90;;;;;;10567746;28;20191;-79
2023/01/22 00:16:27;;;;;;;19.10;17.13;;;3.10;99.90;;;;;;10538949;28;20242;-79
2023/01/22 00:21:31;;;;;;;18.77;16.83;;;3.30;99.90;;;;;;10545633;28;20204;-78
2023/01/22 00:26:33;;;;;;;18.30;16.50;;;3.30;99.90;;;;;;10556006;28;20228;-79
2023/01/22 00:31:36;;;;;;;18.07;16.37;;;3.30;99.90;;;;;;10548183;28;20294;-78
2023/01/22 00:36:41;;;;;;;18.67;16.80;;;3.20;99.90;;;;;;10532244;28;20314;-80
2023/01/22 00:41:43;;;;;;;17.77;15.97;;;3.30;99.90;;;;;;10538423;28;20210;-79
2023/01/22 00:46:45;;;;;;;17.07;15.17;;;3.20;99.90;;;;;;10542215;28;20668;-76
2023/01/22 00:51:48;;;;;;;17.17;15.40;;;3.20;99.90;;;;;;10558533;28;20575;-80
2023/01/22 00:56:50;;;;;;;18.27;16.43;;;3.20;99.90;;;;;;10556332;28;20222;-78
2023/01/22 01:01:52;;;;;;;17.83;16.03;;;3.20;99.90;;;;;;10565289;28;20231;-79
2023/01/22 01:06:56;;;;;;;18.00;16.20;;;3.30;99.90;;;;;;10560349;28;20212;-79
2023/01/22 01:11:59;;;;;;;16.97;15.30;;;3.30;99.90;;;;;;10522779;28;20203;-80
2023/01/22 01:17:01;;;;;;;17.30;15.50;;;3.40;99.90;;;;;;10541161;28;20257;-79
2023/01/22 01:22:06;;;;;;;16.37;14.83;;;3.40;99.90;;;;;;10545065;28;20203;-78
2023/01/22 01:27:09;;;;;;;17.57;15.80;;;3.40;99.90;;;;;;10564586;28;20765;-77
2023/01/22 01:32:11;;;;;;;16.77;15.10;;;3.50;99.90;;;;;;10569671;28;20727;-76
2023/01/22 01:37:14;;;;;;;17.43;15.73;;;3.50;99.90;;;;;;10573006;28;20216;-77
2023/01/22 01:42:23;;;;;;;19.07;16.13;;;3.50;99.90;;;;;;10515107;28;20211;-77
2023/01/22 01:47:32;;;;;;;17.87;16.07;;;3.50;99.90;;;;;;10555429;28;20549;-77
2023/01/22 01:52:36;;;;;;;18.70;16.80;;;3.50;99.90;;;;;;10572301;28;20737;-77
2023/01/22 01:57:40;;;;;;;18.03;16.33;;;3.60;99.90;;;;;;10554979;28;20223;-77
2023/01/22 02:02:42;;;;;;;17.83;16.02;;;3.60;99.90;;;;;;10552920;28;20200;-79
2023/01/22 02:07:45;;;;;;;16.93;15.27;;;3.70;99.90;;;;;;10548989;28;20219;-79
2023/01/22 02:12:48;;;;;;;17.47;15.77;;;3.70;99.90;;;;;;10537580;28;20200;-79
2023/01/22 02:17:50;;;;;;;18.13;16.23;;;3.70;99.90;;;;;;10548350;28;20310;-79
2023/01/22 02:22:54;;;;;;;17.53;15.73;;;3.70;99.90;;;;;;10572745;28;20208;-79
2023/01/22 02:27:56;;;;;;;16.90;15.30;;;3.70;99.90;;;;;;10548043;28;20266;-79
2023/01/22 02:32:58;;;;;;;17.67;15.87;;;3.70;99.90;;;;;;10541870;28;20288;-79
2023/01/22 02:38:02;;;;;;;16.70;15.00;;;3.70;99.90;;;;;;10550368;28;20703;-78
2023/01/22 02:43:05;;;;;;;17.17;15.57;;;3.70;99.90;;;;;;10528714;28;20193;-78
2023/01/22 02:48:09;;;;;;;19.27;17.00;;;3.70;99.90;;;;;;10553668;28;20223;-79
2023/01/22 02:53:13;;;;;;;18.50;16.80;;;3.80;99.90;;;;;;10527583;28;20191;-78
2023/01/22 02:58:16;;;;;;;18.20;16.40;;;3.80;99.90;;;;;;10515868;28;20721;-78
2023/01/22 03:03:19;;;;;;;17.30;15.73;;;3.80;99.90;;;;;;10562994;28;20196;-78
2023/01/22 03:08:25;;;;;;;16.00;14.60;;;3.80;99.90;;;;;;10533327;28;20285;-78
2023/01/22 03:24:08;;;;;;;16.77;15.23;;;3.90;99.90;;;;;;10537665;28;20195;-78
2023/01/22 03:29:10;;;;;;;18.20;16.47;;;3.90;99.90;;;;;;10587306;28;20222;-78
2023/01/22 03:34:12;;;;;;;18.07;16.37;;;3.80;99.90;;;;;;10538782;28;20214;-80
2023/01/22 03:39:16;;;;;;;19.00;17.20;;;3.80;99.90;;;;;;10558231;28;20208;-79
2023/01/22 03:44:18;;;;;;;18.17;16.37;;;3.80;99.90;;;;;;10534471;28;20219;-78
2023/01/22 03:49:21;;;;;;;17.63;16.03;;;3.80;99.90;;;;;;10564681;28;20229;-78
2023/01/22 03:54:28;;;;;;;18.40;16.70;;;3.80;99.90;;;;;;10542425;28;20203;-79
2023/01/22 03:59:32;;;;;;;17.50;15.90;;;3.80;99.90;;;;;;10533598;28;20235;-79
2023/01/22 04:04:35;;;;;;;18.20;16.37;;;3.90;99.90;;;;;;10552353;28;20429;-77
2023/01/22 04:09:39;;;;;;;18.17;16.50;;;4.00;99.90;;;;;;10564489;28;20302;-79
2023/01/22 04:14:41;;;;;;;18.43;16.63;;;4.10;99.90;;;;;;10556971;28;20495;-79
2023/01/22 04:19:43;;;;;;;17.92;16.23;;;4.10;99.90;;;;;;10523673;28;20195;-80
2023/01/22 04:25:01;;;;;;;18.83;17.03;;;4.20;99.90;;;;;;10561470;28;20253;-79
2023/01/22 04:30:05;;;;;;;18.83;17.10;;;4.20;99.90;;;;;;10527919;28;20257;-79
2023/01/22 04:35:09;;;;;;;16.70;15.20;;;4.10;99.90;;;;;;10548684;28;20790;-80
2023/01/22 04:40:19;;;;;;;17.93;16.17;;;4.00;99.90;;;;;;10523448;28;20196;-80
2023/01/22 04:45:22;;;;;;;19.70;17.80;;;4.00;99.90;;;;;;10531567;28;20278;-79
2023/01/22 04:50:29;;;;;;;17.00;15.40;;;4.00;99.90;;;;;;10547991;28;20216;-79
2023/01/22 04:55:33;;;;;;;18.20;16.40;;;3.90;99.90;;;;;;10573483;28;20231;-79
2023/01/22 05:00:39;;;;;;;18.23;16.53;;;3.90;99.90;;;;;;10554105;28;20192;-76
2023/01/22 05:05:41;;;;;;;16.90;15.30;;;3.90;99.90;;;;;;10521033;28;20223;-78
2023/01/22 05:10:45;;;;;;;19.10;17.30;;;3.90;99.90;;;;;;10560472;28;20222;-78
2023/01/22 05:15:53;;;;;;;18.10;16.40;;;3.90;99.90;;;;;;10546308;28;20220;-79
2023/01/22 05:20:57;;;;;;;17.93;16.20;;;3.90;99.80;;;;;;10560404;28;20200;-78
2023/01/22 05:26:04;;;;;;;18.80;17.00;;;3.90;99.90;;;;;;10534846;28;20284;-78
2023/01/22 05:31:24;;;;;;;17.63;16.03;;;3.80;99.90;;;;;;10562461;28;20237;-79
2023/01/22 05:36:37;;;;;;;16.57;14.77;;;4.00;99.90;;;;;;10536939;28;20568;-80
2023/01/22 05:41:47;;;;;;;17.00;15.40;;;4.10;99.90;;;;;;10530488;28;20187;-80
2023/01/22 05:46:50;;;;;;;17.70;15.87;;;4.00;99.90;;;;;;10571347;28;20223;-79
2023/01/22 05:52:15;;;;;;;19.37;17.57;;;4.00;99.90;;;;;;10567671;28;20299;-78
2023/01/22 05:57:20;;;;;;;18.58;16.88;;;4.00;99.90;;;;;;10539903;28;20647;-78
2023/01/22 06:02:24;;;;;;;20.53;18.40;;;4.10;99.90;;;;;;10548760;28;20234;-78
2023/01/22 06:07:30;;;;;;;19.00;17.20;;;4.20;99.90;;;;;;10525138;28;20527;-78
2023/01/22 06:12:33;;;;;;;18.33;16.63;;;4.10;99.90;;;;;;10540629;28;20537;-77
2023/01/22 06:17:36;;;;;;;18.47;16.70;;;4.10;99.90;;;;;;10565879;28;20215;-78
2023/01/22 06:22:38;;;;;;;18.60;16.80;;;4.10;99.90;;;;;;10548626;28;20211;-78
2023/01/22 06:27:42;;;;;;;20.10;18.07;;;4.00;99.90;;;;;;10555039;28;20262;-78
2023/01/22 06:32:44;;;;;;;20.57;18.53;;;4.00;99.90;;;;;;10540000;28;20199;-77
2023/01/22 06:37:48;;;;;;;19.98;17.98;;;3.90;99.90;;;;;;10527626;28;20224;-78
2023/01/22 06:42:51;;;;;;;21.13;18.93;;;4.00;99.90;;;;;;10538029;28;20207;-79
2023/01/22 06:47:53;;;;;;;20.50;18.50;;;4.00;99.90;;;;;;10540695;28;20218;-77
2023/01/22 06:52:55;;;;;;;21.38;19.25;;;4.00;99.90;;;;;;10552861;28;20644;-77
2023/01/22 06:57:59;;;;;;;23.27;20.88;;;4.00;99.90;;;;;;10556879;28;20284;-78
2023/01/22 07:03:06;;;;;;;22.13;20.00;;;4.10;99.90;;;;;;10573361;28;20199;-78
2023/01/22 07:08:09;;;;;;;21.63;19.40;;;4.10;99.90;;;;;;10531149;28;20212;-77
2023/01/22 07:13:14;;;;;;;23.17;20.97;;;4.00;99.90;;;;;;10519809;28;20567;-79
2023/01/22 07:18:18;;;;;;;21.43;19.23;;;4.10;99.90;;;;;;10558738;28;20258;-79
2023/01/22 07:23:20;;;;;;;21.63;19.57;;;4.30;99.90;;;;;;10573199;28;20209;-79
2023/01/22 07:28:24;;;;;;;21.90;19.70;;;4.20;99.90;;;;;;10566313;28;20257;-78
2023/01/22 07:33:26;;;;;;;22.10;20.00;;;4.10;99.90;;;;;;10548654;28;20730;-78
2023/01/22 07:38:28;;;;;;;23.23;20.90;;;4.00;99.90;;;;;;10566876;28;20398;-78
2023/01/22 07:43:32;;;;;;;22.30;20.00;;;4.00;99.90;;;;;;10567726;28;20191;-79
2023/01/22 07:48:34;;;;;;;21.80;19.67;;;4.00;99.90;;;;;;10547491;28;20718;-77
2023/01/22 07:53:36;;;;;;;22.23;20.03;;;4.00;99.90;;;;;;10547359;28;20195;-78
2023/01/22 07:58:40;;;;;;;23.90;21.30;;;3.90;99.90;;;;;;10595073;22;20300;-79
2023/01/22 08:03:42;;;;;;;22.00;19.70;;;3.90;99.90;;;;;;10538077;28;20248;-78
2023/01/22 08:08:44;;;;;;;22.27;20.13;;;3.90;99.90;;;;;;10498962;28;20235;-78
2023/01/22 08:13:47;;;;;;;22.60;20.30;;;4.00;99.90;;;;;;10487301;28;20199;-78
2023/01/22 08:18:49;;;;;;;23.63;21.23;;;4.00;99.90;;;;;;10487638;28;20277;-79
2023/01/22 08:23:52;;;;;;;24.93;22.27;;;4.00;99.90;;;;;;10510799;28;20232;-80
2023/01/22 08:28:55;;;;;;;23.47;20.97;;;4.00;99.90;;;;;;10534540;28;20307;-79
2023/01/22 08:33:58;;;;;;;22.57;20.27;;;4.10;99.90;;;;;;10521921;28;20208;-78
2023/01/22 08:39:01;;;;;;;21.13;19.13;;;4.10;99.90;;;;;;10542380;28;20234;-80
2023/01/22 08:44:04;;;;;;;21.40;19.40;;;4.10;99.90;;;;;;10507796;28;20192;-78
2023/01/22 08:49:07;;;;;;;21.67;19.47;;;4.10;99.90;;;;;;10541604;28;20269;-79
2023/01/22 08:54:09;;;;;;;21.33;19.10;;;4.20;99.90;;;;;;10538494;28;20271;-81
2023/01/22 08:59:13;;;;;;;21.53;19.33;;;4.30;99.90;;;;;;10548093;28;20273;-80
2023/01/22 09:04:16;;;;;;;21.37;19.20;;;4.30;99.90;;;;;;10523300;28;20233;-79
2023/01/22 09:09:18;;;;;;;20.43;18.33;;;4.30;99.90;;;;;;10541890;28;20247;-79
2023/01/22 09:14:22;;;;;;;23.10;20.80;;;4.30;99.90;;;;;;10535877;28;20649;-78
2023/01/22 09:19:24;;;;;;;24.90;21.20;;;4.40;99.90;;;;;;10500203;28;20608;-78
2023/01/22 09:24:27;;;;;;;16.35;14.85;;;4.40;99.90;;;;;;10508431;28;20609;-79
2023/01/22 09:29:31;;;;;;;22.93;19.43;;;4.60;99.90;;;;;;10543088;28;20246;-80
2023/01/22 09:34:33;;;;;;;21.98;19.33;;;4.70;99.90;;;;;;10542221;28;20546;-79
2023/01/22 09:39:35;;;;;;;21.07;18.97;;;4.80;99.90;;;;;;10544339;28;20299;-78
2023/01/22 09:44:41;;;;;;;20.20;18.10;;;4.80;99.90;;;;;;10540272;28;20527;-79
2023/01/22 09:49:51;;;;;;;22.27;19.93;;;4.80;99.90;;;;;;10533883;28;20258;-79
2023/01/22 09:54:54;;;;;;;21.57;19.37;;;4.80;99.90;;;;;;10517243;28;20631;-79
2023/01/22 09:59:57;;;;;;;21.43;19.33;;;4.80;99.90;;;;;;10540915;28;20224;-80
2023/01/22 10:05:04;;;;;;;20.67;18.67;;;4.80;99.90;;;;;;10524285;28;20192;-80
2023/01/22 10:10:18;;;;;;;20.70;18.70;;;4.90;99.90;;;;;;10519825;28;20308;-80
2023/01/22 10:15:24;;;;;;;21.97;19.67;;;5.00;99.90;;;;;;10508285;28;20212;-80
2023/01/22 10:20:26;;;;;;;21.80;19.60;;;5.00;99.90;;;;;;10518131;28;20188;-81
2023/01/22 10:25:28;;;;;;;20.93;18.73;;;5.10;99.90;;;;;;10502674;28;20275;-80
2023/01/22 10:30:34;;;;;;;20.77;18.57;;;5.30;99.90;;;;;;10541371;28;20702;-79
2023/01/22 10:35:43;;;;;;;23.07;18.37;;;5.30;99.90;;;;;;10532323;28;20247;-80
2023/01/22 10:40:45;;;;;;;22.00;19.70;;;5.20;99.90;;;;;;10496373;28;20698;-80
2023/01/22 10:45:57;;;;;;;21.90;19.70;;;5.10;99.90;;;;;;10536409;28;20230;-80
2023/01/22 10:51:02;;;;;;;21.20;19.00;;;5.10;99.90;;;;;;10532444;28;20299;-81
2023/01/22 10:56:10;;;;;;;23.83;21.23;;;5.10;99.90;;;;;;10511728;28;20270;-80
2023/01/22 11:01:26;;;;;;;20.53;18.53;;;5.10;99.90;;;;;;10513122;28;20603;-80
2023/01/22 11:06:36;;;;;;;20.53;18.33;;;5.00;99.90;;;;;;10537743;28;20251;-79
2023/01/22 11:11:42;;;;;;;19.87;17.97;;;5.10;99.90;;;;;;10540560;28;20223;-80
2023/01/22 11:16:49;;;;;;;22.27;19.97;;;5.10;99.90;;;;;;10540020;28;20683;-80
2023/01/22 11:21:54;;;;;;;21.00;19.00;;;5.00;99.90;;;;;;10516631;28;20203;-79
2023/01/22 11:27:10;;;;;;;20.07;18.07;;;5.00;99.90;;;;;;10531182;28;20255;-81
2023/01/22 11:32:53;;;;;;;21.53;19.47;;;5.00;99.90;;;;;;10525880;28;20306;-82
2023/01/22 11:38:18;;;;;;;20.90;18.80;;;5.10;99.90;;;;;;10524018;28;20223;-81
2023/01/22 11:43:31;;;;;;;20.13;18.13;;;5.10;99.90;;;;;;10540694;28;20204;-81
2023/01/22 11:49:03;;;;;;;20.37;18.27;;;5.20;99.90;;;;;;10534966;28;20220;-80
2023/01/22 11:54:19;;;;;;;20.73;18.63;;;5.20;99.90;;;;;;10539270;28;20625;-80
2023/01/22 11:59:31;;;;;;;19.90;17.97;;;5.30;99.90;;;;;;10550332;28;20662;-79
2023/01/22 12:05:07;;;;;;;18.77;16.83;;;5.30;99.90;;;;;;10529916;28;20226;-80
2023/01/22 12:10:44;;;;;;;18.10;16.30;;;5.40;99.90;;;;;;10484853;28;20242;-81
2023/01/22 12:15:56;;;;;;;19.10;17.13;;;5.40;99.90;;;;;;10537976;28;20772;-81
2023/01/22 12:21:07;;;;;;;18.95;17.10;;;5.40;99.90;;;;;;10546109;28;20196;-80
2023/01/22 12:26:14;;;;;;;17.43;15.70;;;5.50;99.90;;;;;;10544793;28;20266;-81
2023/01/22 12:31:21;;;;;;;18.30;16.50;;;5.60;99.90;;;;;;10530947;28;20599;-81
2023/01/22 12:36:26;;;;;;;17.67;15.87;;;5.50;99.90;;;;;;10548127;28;20256;-81
2023/01/22 12:41:44;;;;;;;18.70;16.97;;;5.40;99.90;;;;;;10547053;28;20647;-77
2023/01/22 12:46:55;;;;;;;18.93;17.07;;;5.40;99.90;;;;;;10537656;28;20755;-81
2023/01/22 12:51:59;;;;;;;16.30;14.70;;;5.40;99.90;;;;;;10554424;28;20287;-79
2023/01/22 12:57:22;;;;;;;18.37;16.57;;;5.50;99.70;;;;;;10550406;28;20472;-79
2023/01/22 13:02:35;;;;;;;16.80;15.10;;;5.50;99.90;;;;;;10534137;28;20204;-81
2023/01/22 13:07:40;;;;;;;16.67;15.03;;;5.50;99.90;;;;;;10550549;28;20454;-80
2023/01/22 13:12:48;;;;;;;16.60;14.90;;;5.50;99.90;;;;;;10553110;28;20228;-81
2023/01/22 13:17:56;;;;;;;17.67;15.87;;;5.40;99.90;;;;;;10545932;28;20310;-81
2023/01/22 13:22:59;;;;;;;15.70;14.37;;;5.30;99.90;;;;;;10547383;28;20218;-80
2023/01/22 13:28:02;;;;;;;18.03;16.27;;;5.30;99.90;;;;;;10530891;28;20310;-81
2023/01/22 13:33:07;;;;;;;16.70;15.10;;;5.20;99.90;;;;;;10530529;28;20305;-81
2023/01/22 13:38:19;;;;;;;17.80;16.10;;;5.20;99.90;;;;;;10547120;28;20228;-81
2023/01/22 13:43:22;;;;;;;17.07;15.37;;;5.10;99.90;;;;;;10544773;28;20204;-81
2023/01/22 13:48:26;;;;;;;16.63;15.10;;;5.10;99.90;;;;;;10545177;28;20285;-81
2023/01/22 13:53:33;;;;;;;14.97;13.63;;;5.00;99.90;;;;;;10545331;28;20228;-80
2023/01/22 13:58:40;;;;;;;14.90;13.60;;;5.00;99.90;;;;;;10585087;22;20237;-78
2023/01/22 14:03:42;;;;;;;13.97;12.77;;;5.00;99.90;;;;;;10583481;28;20227;-77
2023/01/22 14:08:48;;;;;;;14.77;13.32;;;5.00;99.90;;;;;;10572113;28;20605;-78
2023/01/22 14:13:52;;;;;;;14.50;13.10;;;5.20;99.90;;;;;;10543670;28;20197;-77
2023/01/22 14:18:54;;;;;;;13.10;11.93;;;5.30;99.90;;;;;;10544245;28;20254;-78
2023/01/22 14:23:58;;;;;;;14.52;13.23;;;5.20;99.90;;;;;;10532126;28;20741;-79
2023/01/22 14:29:00;;;;;;;13.50;12.30;;;5.30;99.90;;;;;;10552149;28;20281;-77
2023/01/22 14:34:02;;;;;;;12.27;11.17;;;5.30;99.90;;;;;;10519251;28;20204;-78
2023/01/22 14:39:06;;;;;;;13.70;12.40;;;5.20;99.90;;;;;;10526266;28;20235;-78
2023/01/22 14:44:09;;;;;;;12.90;11.80;;;5.10;99.90;;;;;;10524158;28;20303;-78
2023/01/22 14:49:11;;;;;;;12.47;11.37;;;5.00;99.90;;;;;;10546029;28;20231;-77
2023/01/22 14:54:15;;;;;;;13.77;12.37;;;5.00;99.90;;;;;;10533594;28;20269;-79
2023/01/22 14:59:17;;;;;;;13.93;12.63;;;5.00;99.90;;;;;;10534119;28;20761;-78
2023/01/22 15:04:19;;;;;;;12.80;11.80;;;5.00;99.90;;;;;;10548654;28;20217;-77
2023/01/22 15:09:22;;;;;;;12.80;11.70;;;4.90;99.90;;;;;;10548779;28;20345;-78
2023/01/22 15:14:24;;;;;;;14.00;12.80;;;4.90;99.90;;;;;;10542129;28;20335;-78
2023/01/22 15:19:26;;;;;;;13.17;11.97;;;4.90;99.90;;;;;;10566804;28;20423;-78
2023/01/22 15:24:30;;;;;;;14.87;12.73;;;4.90;99.90;;;;;;10565980;28;20232;-77
2023/01/22 15:29:32;;;;;;;13.10;12.00;;;4.90;99.90;;;;;;10525540;28;20292;-79
2023/01/22 15:34:34;;;;;;;11.48;10.55;;;4.90;99.90;;;;;;10528603;28;20204;-79
2023/01/22 15:39:37;;;;;;;12.60;11.40;;;5.00;99.90;;;;;;10559680;28;20219;-78
2023/01/22 15:44:39;;;;;;;11.87;10.87;;;5.10;99.90;;;;;;10565756;28;20248;-77
2023/01/22 15:49:42;;;;;;;11.82;10.82;;;5.00;99.90;;;;;;10563604;28;20253;-78
2023/01/22 15:54:46;;;;;;;12.63;11.60;;;5.10;99.90;;;;;;10564987;28;20203;-79
2023/01/22 15:59:48;;;;;;;11.07;10.23;;;5.10;99.90;;;;;;10582388;28;20698;-78
2023/01/22 16:04:50;;;;;;;11.68;10.57;;;5.00;99.90;;;;;;10566003;28;20195;-78
2023/01/22 16:09:53;;;;;;;12.13;11.13;;;5.10;99.90;;;;;;10583594;28;20220;-77
2023/01/22 16:14:55;;;;;;;11.90;10.90;;;5.30;99.90;;;;;;10565837;28;20284;-80
2023/01/22 16:19:58;;;;;;;11.90;10.90;;;5.20;99.90;;;;;;10552778;28;20272;-79
2023/01/22 16:25:01;;;;;;;12.00;11.00;;;5.10;99.90;;;;;;10552641;28;20215;-79
2023/01/22 16:30:04;;;;;;;11.97;11.00;;;5.10;99.90;;;;;;10557283;28;20243;-82
2023/01/22 16:35:07;;;;;;;12.83;11.73;;;5.10;99.90;;;;;;10586893;28;20195;-80
2023/01/22 16:40:12;;;;;;;12.43;11.43;;;5.10;99.90;;;;;;10547568;28;20207;-79
2023/01/22 16:45:15;;;;;;;12.60;11.60;;;5.10;99.90;;;;;;10564987;28;20227;-80
2023/01/22 16:50:17;;;;;;;11.67;10.77;;;5.10;99.90;;;;;;10583765;28;20272;-79
2023/01/22 16:55:21;;;;;;;10.97;10.17;;;5.00;99.90;;;;;;10566797;28;20670;-80
2023/01/22 17:00:23;;;;;;;12.33;11.33;;;5.00;99.90;;;;;;10573883;28;20256;-80
2023/01/22 17:05:25;;;;;;;12.30;11.30;;;5.00;99.90;;;;;;10572425;28;20267;-80
2023/01/22 17:10:28;;;;;;;12.30;11.20;;;5.10;99.90;;;;;;10589831;28;20300;-79
2023/01/22 17:15:30;;;;;;;12.50;11.40;;;5.10;99.90;;;;;;10569362;28;20223;-79
2023/01/22 17:20:32;;;;;;;12.47;11.47;;;5.20;99.90;;;;;;10565108;28;20253;-77
2023/01/22 17:25:39;;;;;;;11.97;10.87;;;5.30;99.90;;;;;;10572587;28;20226;-78
2023/01/22 17:30:41;;;;;;;13.13;12.13;;;5.20;99.90;;;;;;10563861;28;20211;-78
2023/01/22 17:35:43;;;;;;;13.30;12.20;;;5.10;99.90;;;;;;10590989;28;20274;-78
2023/01/22 17:40:46;;;;;;;12.03;11.13;;;5.10;99.90;;;;;;10556311;28;20673;-79
2023/01/22 17:45:49;;;;;;;12.43;11.43;;;5.10;99.90;;;;;;10588020;28;20227;-78
2023/01/22 17:50:51;;;;;;;13.00;11.97;;;5.10;99.90;;;;;;10590990;28;20222;-80
2023/01/22 17:55:54;;;;;;;11.90;10.90;;;5.10;99.90;;;;;;10552825;28;20733;-79
2023/01/22 18:01:04;;;;;;;12.87;11.80;;;5.20;99.90;;;;;;10546572;28;20230;-78
2023/01/22 18:06:07;;;;;;;12.43;11.40;;;5.30;99.90;;;;;;10571697;28;20253;-80
2023/01/22 18:11:12;;;;;;;12.90;11.80;;;5.20;99.90;;;;;;10557450;28;20211;-79
2023/01/22 18:16:16;;;;;;;12.77;11.57;;;5.10;99.90;;;;;;10558318;28;20592;-78
2023/01/22 18:21:20;;;;;;;12.33;11.30;;;5.10;99.90;;;;;;10592573;28;20230;-79
2023/01/22 18:26:25;;;;;;;13.57;12.47;;;5.10;99.90;;;;;;10558682;28;20255;-78
2023/01/22 18:31:29;;;;;;;12.60;11.55;;;5.00;99.90;;;;;;10545795;28;20297;-81
2023/01/22 18:36:32;;;;;;;13.07;12.03;;;5.10;99.90;;;;;;10573846;28;20230;-80
2023/01/22 18:41:36;;;;;;;12.03;11.03;;;5.10;99.90;;;;;;10587000;28;20202;-77
2023/01/22 18:46:41;;;;;;;12.55;11.45;;;5.00;99.90;;;;;;10568253;28;20227;-80
2023/01/22 18:51:43;;;;;;;13.20;12.17;;;4.90;99.90;;;;;;10580499;28;20306;-80
2023/01/22 18:56:47;;;;;;;13.27;12.17;;;4.90;99.90;;;;;;10562244;28;20239;-78
2023/01/22 19:01:50;;;;;;;12.00;11.10;;;4.80;99.90;;;;;;10579995;28;20187;-80
2023/01/22 19:06:55;;;;;;;14.00;12.90;;;4.70;99.90;;;;;;10529855;28;20698;-78
2023/01/22 19:11:59;;;;;;;13.90;12.70;;;4.60;99.90;;;;;;10582350;28;20305;-79
2023/01/22 19:17:02;;;;;;;14.30;13.00;;;4.60;99.90;;;;;;10555539;27;20532;-81
2023/01/22 19:22:04;;;;;;;15.07;13.70;;;4.50;99.90;;;;;;10566800;28;20282;-79
2023/01/22 19:27:08;;;;;;;11.67;10.77;;;4.50;99.90;;;;;;10572859;28;20222;-81
2023/01/22 19:32:13;;;;;;;14.97;13.50;;;4.50;99.90;;;;;;10561640;27;20771;-81
2023/01/22 19:37:15;;;;;;;15.87;14.57;;;4.70;99.90;;;;;;10557495;28;20222;-79
2023/01/22 19:42:19;;;;;;;14.30;13.10;;;4.80;99.90;;;;;;10560575;28;20187;-81
2023/01/22 19:47:21;;;;;;;13.47;12.37;;;4.70;99.90;;;;;;10543703;28;20240;-81
2023/01/22 19:52:23;;;;;;;15.17;13.87;;;4.60;99.90;;;;;;10579221;28;20253;-81
2023/01/22 19:57:28;;;;;;;14.13;12.93;;;4.60;99.90;;;;;;10584974;22;20309;-81
2023/01/22 20:02:31;;;;;;;14.20;13.00;;;4.60;99.90;;;;;;10502500;28;20198;-81
2023/01/22 20:07:33;;;;;;;14.20;12.90;;;4.60;99.90;;;;;;10518169;28;20354;-81
2023/01/22 20:12:36;;;;;;;12.63;11.53;;;4.60;99.90;;;;;;10516276;28;20648;-81
2023/01/22 20:17:38;;;;;;;13.70;12.50;;;4.60;99.90;;;;;;10470282;28;20238;-80
2023/01/22 20:22:40;;;;;;;13.40;12.17;;;4.60;99.90;;;;;;10490320;28;20201;-81
2023/01/22 20:27:44;;;;;;;10.20;9.33;;;4.60;99.90;;;;;;10492648;28;20318;-81
2023/01/22 20:32:46;;;;;;;13.43;12.23;;;4.60;99.90;;;;;;10489867;28;20676;-82
2023/01/22 20:37:48;;;;;;;14.00;12.80;;;4.60;99.90;;;;;;10504165;28;20610;-81
2023/01/22 20:42:51;;;;;;;13.40;12.20;;;4.60;99.90;;;;;;10506085;28;20275;-81
2023/01/22 20:47:53;;;;;;;14.50;13.30;;;4.60;99.90;;;;;;10506172;28;20220;-81
2023/01/22 20:52:55;;;;;;;14.57;13.27;;;4.60;99.90;;;;;;10499552;28;20621;-81
2023/01/22 20:57:59;;;;;;;13.40;12.30;;;4.60;99.90;;;;;;10506444;28;20224;-81
2023/01/22 21:03:01;;;;;;;15.57;14.07;;;4.60;99.90;;;;;;10490945;28;20218;-80
2023/01/22 21:08:03;;;;;;;15.53;14.13;;;4.70;99.90;;;;;;10510898;28;20208;-81
2023/01/22 21:13:06;;;;;;;13.52;12.30;;;4.80;99.90;;;;;;10513358;28;20232;-81
2023/01/22 21:18:08;;;;;;;15.03;13.63;;;4.80;99.90;;;;;;10512333;28;20216;-80
2023/01/22 21:23:10;;;;;;;14.97;13.67;;;4.90;99.90;;;;;;10495650;28;20692;-80
2023/01/22 21:28:14;;;;;;;14.47;13.17;;;4.80;99.90;;;;;;10521408;28;20499;-80
2023/01/22 21:33:16;;;;;;;14.60;13.30;;;4.80;99.90;;;;;;10492806;28;20204;-78
2023/01/22 21:38:18;;;;;;;14.83;13.43;;;4.70;99.90;;;;;;10514964;28;20586;-80
2023/01/22 21:48:41;;;;;;;14.03;12.83;;;4.70;99.90;;;;;;10508396;28;20223;-81
2023/01/22 21:53:43;;;;;;;16.13;14.70;;;4.60;99.90;;;;;;10507997;28;20310;-81
2023/01/22 21:58:47;;;;;;;14.70;13.40;;;4.60;99.90;;;;;;10489327;28;20236;-81
2023/01/22 22:03:49;;;;;;;15.20;13.90;;;4.60;99.90;;;;;;10508179;28;20280;-79
2023/01/22 22:08:51;;;;;;;14.65;13.30;;;4.60;99.90;;;;;;10485661;28;20251;-81
2023/01/22 22:13:55;;;;;;;13.97;12.87;;;4.80;99.90;;;;;;10488338;28;20215;-82
2023/01/22 22:18:57;;;;;;;15.70;14.33;;;4.80;99.90;;;;;;10506672;28;20220;-81
2023/01/22 22:23:59;;;;;;;14.63;13.33;;;4.80;99.90;;;;;;10490108;28;20204;-80
2023/01/22 22:29:03;;;;;;;15.13;13.73;;;4.70;99.90;;;;;;10481267;28;20221;-81
2023/01/22 22:34:08;;;;;;;15.90;14.45;;;4.70;99.90;;;;;;10481710;28;20212;-80
2023/01/22 22:39:10;;;;;;;14.80;13.50;;;4.80;99.90;;;;;;10504918;28;20240;-80
2023/01/22 22:44:15;;;;;;;15.17;13.87;;;4.80;99.90;;;;;;10506758;28;20224;-80
2023/01/22 22:49:17;;;;;;;16.63;15.00;;;4.80;99.90;;;;;;10500496;28;20228;-80
2023/01/22 22:54:20;;;;;;;15.43;14.13;;;4.70;99.90;;;;;;10497715;28;20228;-82
2023/01/22 22:59:23;;;;;;;15.47;13.97;;;4.60;99.90;;;;;;10492674;28;20256;-80
2023/01/22 23:04:25;;;;;;;17.23;15.70;;;4.60;99.90;;;;;;10482003;28;20237;-81
2023/01/22 23:09:28;;;;;;;16.23;14.70;;;4.70;99.90;;;;;;10510681;28;20291;-81
2023/01/22 23:14:31;;;;;;;16.10;14.70;;;4.90;99.90;;;;;;10498563;28;20566;-81
2023/01/22 23:19:33;;;;;;;15.40;14.03;;;4.90;99.90;;;;;;10508517;28;20259;-82
2023/01/22 23:24:35;;;;;;;15.47;14.17;;;4.80;99.90;;;;;;10518115;28;20228;-81
2023/01/22 23:29:39;;;;;;;17.10;15.47;;;4.80;99.90;;;;;;10508822;28;20311;-81
2023/01/22 23:34:41;;;;;;;16.37;14.97;;;4.70;99.90;;;;;;10506583;28;20212;-80
2023/01/22 23:39:44;;;;;;;16.30;14.80;;;4.60;99.90;;;;;;10510477;28;20591;-82
2023/01/22 23:44:47;;;;;;;15.40;13.90;;;4.70;99.90;;;;;;10504131;28;20192;-82
2023/01/22 23:49:49;;;;;;;17.53;15.93;;;4.60;99.90;;;;;;10503870;28;20228;-81
2023/01/22 23:54:51;;;;;;;17.73;16.13;;;4.60;99.90;;;;;;10489949;28;20231;-81
2023/01/22 23:59:55;;;;;;;16.70;15.10;;;4.60;99.90;;;;;;10504062;28;20235;-82
